createdAt,value
2019-02-16T00:00:50.408Z,4.23
2019-02-16T00:03:20.103Z,4.19
2019-02-16T00:05:48.900Z,4.14
2019-02-16T00:08:17.758Z,4.09
2019-02-16T00:10:47.345Z,4.05
2019-02-16T00:13:16.147Z,4.02
2019-02-16T00:15:44.926Z,3.98
2019-02-16T00:18:13.818Z,3.95
2019-02-16T00:20:44.130Z,3.93
2019-02-16T00:23:12.974Z,3.90
2019-02-16T00:25:41.783Z,3.86
2019-02-16T00:28:10.772Z,3.81
2019-02-16T00:30:39.567Z,3.78
2019-02-16T00:33:08.337Z,3.75
2019-02-16T00:35:37.167Z,3.73
2019-02-16T00:38:06.459Z,3.69
2019-02-16T00:40:35.243Z,3.66
2019-02-16T00:43:04.044Z,3.63
2019-02-16T00:45:34.100Z,3.60
2019-02-16T00:48:02.882Z,3.58
2019-02-16T00:50:31.671Z,3.54
2019-02-16T00:53:01.013Z,3.52
2019-02-16T00:55:29.861Z,3.50
2019-02-16T00:57:58.659Z,3.46
2019-02-16T01:00:28.515Z,3.41
2019-02-16T01:02:57.309Z,3.39
2019-02-16T01:05:26.121Z,3.36
2019-02-16T01:07:54.920Z,3.33
2019-02-16T01:10:26.112Z,3.29
2019-02-16T01:12:54.923Z,3.28
2019-02-16T01:15:23.702Z,3.24
2019-02-16T01:17:52.760Z,3.22
2019-02-16T01:20:21.549Z,3.20
2019-02-16T01:22:50.334Z,3.17
2019-02-16T01:25:19.142Z,3.13
2019-02-16T01:27:48.069Z,3.11
2019-02-16T01:30:16.836Z,3.08
2019-02-16T01:32:45.719Z,3.04
2019-02-16T01:35:14.599Z,3.01
2019-02-16T01:37:43.426Z,2.98
2019-02-16T01:40:12.257Z,2.95
2019-02-16T01:42:41.097Z,2.92
2019-02-16T01:45:10.418Z,2.87
2019-02-16T01:47:39.318Z,2.86
2019-02-16T01:50:09.057Z,2.84
2019-02-16T01:52:37.880Z,2.82
2019-02-16T01:55:08.911Z,2.82
2019-02-16T01:57:38.293Z,2.78
2019-02-16T02:00:08.589Z,2.76
2019-02-16T02:02:37.429Z,2.72
2019-02-16T02:05:06.301Z,2.71
2019-02-16T02:07:35.699Z,2.68
2019-02-16T02:10:05.174Z,2.66
2019-02-16T02:12:34.082Z,2.65
2019-02-16T02:15:02.916Z,2.63
2019-02-16T02:17:31.801Z,2.61
2019-02-16T02:20:00.655Z,2.57
2019-02-16T02:22:29.522Z,2.57
2019-02-16T02:24:58.353Z,2.57
2019-02-16T02:27:27.718Z,2.55
2019-02-16T02:29:56.561Z,2.56
2019-02-16T02:32:25.397Z,2.52
2019-02-16T02:34:54.234Z,2.49
2019-02-16T02:37:23.063Z,2.47
2019-02-16T02:39:51.897Z,2.44
2019-02-16T02:42:20.786Z,2.42
2019-02-16T02:44:49.635Z,2.40
2019-02-16T02:47:18.464Z,2.38
2019-02-16T02:49:47.290Z,2.35
2019-02-16T02:52:16.209Z,2.31
2019-02-16T02:54:45.264Z,2.28
2019-02-16T02:57:14.113Z,2.25
2019-02-16T02:59:42.959Z,2.23
2019-02-16T03:02:11.850Z,2.23
2019-02-16T03:04:40.713Z,2.18
2019-02-16T03:07:09.651Z,2.16
2019-02-16T03:09:38.590Z,2.14
2019-02-16T03:12:07.436Z,2.10
2019-02-16T03:14:36.301Z,2.09
2019-02-16T03:17:06.111Z,2.09
2019-02-16T03:19:35.024Z,2.06
2019-02-16T03:22:03.897Z,2.05
2019-02-16T03:24:33.443Z,2.03
2019-02-16T03:27:12.367Z,1.99
2019-02-16T03:30:01.105Z,1.96
2019-02-16T03:32:43.790Z,1.92
2019-02-16T03:35:24.604Z,1.91
2019-02-16T03:38:04.314Z,1.88
2019-02-16T03:40:33.159Z,1.87
2019-02-16T03:43:02.001Z,1.87
2019-02-16T03:45:31.868Z,1.87
2019-02-16T03:48:00.708Z,1.86
2019-02-16T03:50:29.539Z,1.83
2019-02-16T03:53:00.100Z,1.82
2019-02-16T03:55:28.940Z,1.81
2019-02-16T03:57:57.849Z,1.78
2019-02-16T04:00:26.685Z,1.75
2019-02-16T04:02:55.528Z,1.72
2019-02-16T04:05:24.429Z,1.70
2019-02-16T04:07:53.313Z,1.71
2019-02-16T04:10:22.171Z,1.73
2019-02-16T04:12:51.103Z,1.72
2019-02-16T04:15:20.926Z,1.70
2019-02-16T04:17:49.770Z,1.69
2019-02-16T04:20:18.606Z,1.68
2019-02-16T04:22:47.425Z,1.68
2019-02-16T04:25:16.976Z,1.65
2019-02-16T04:27:45.788Z,1.62
2019-02-16T04:30:14.642Z,1.63
2019-02-16T04:32:43.423Z,1.61
2019-02-16T04:35:12.215Z,1.63
2019-02-16T04:37:41.012Z,1.60
2019-02-16T04:40:09.794Z,1.58
2019-02-16T04:42:38.584Z,1.53
2019-02-16T04:45:07.426Z,1.50
2019-02-16T04:47:36.175Z,1.46
2019-02-16T04:50:05.028Z,1.44
2019-02-16T04:52:35.186Z,1.44
2019-02-16T04:55:02.595Z,1.42
2019-02-16T04:57:32.100Z,1.41
2019-02-16T05:00:00.972Z,1.37
2019-02-16T05:02:29.747Z,1.35
2019-02-16T05:04:59.588Z,1.34
2019-02-16T05:07:28.460Z,1.32
2019-02-16T05:09:57.244Z,1.31
2019-02-16T05:12:26.045Z,1.28
2019-02-16T05:14:54.833Z,1.27
2019-02-16T05:17:23.620Z,1.25
2019-02-16T05:19:52.407Z,1.24
2019-02-16T05:22:22.512Z,1.26
2019-02-16T05:24:51.301Z,1.27
2019-02-16T05:27:20.111Z,1.24
2019-02-16T05:29:49.047Z,1.21
2019-02-16T05:32:17.867Z,1.21
2019-02-16T05:34:46.620Z,1.20
2019-02-16T05:37:15.476Z,1.22
2019-02-16T05:39:44.290Z,1.26
2019-02-16T05:42:13.188Z,1.27
2019-02-16T05:44:41.958Z,1.27
2019-02-16T05:47:10.832Z,1.24
2019-02-16T05:49:39.608Z,1.21
2019-02-16T05:52:08.402Z,1.18
2019-02-16T05:54:37.195Z,1.15
2019-02-16T05:57:05.989Z,1.12
2019-02-16T05:59:35.386Z,1.09
2019-02-16T06:02:04.180Z,1.08
2019-02-16T06:04:32.972Z,1.05
2019-02-16T06:07:01.833Z,1.01
2019-02-16T06:09:31.223Z,1.00
2019-02-16T06:12:00.033Z,1.03
2019-02-16T06:14:28.892Z,1.04
2019-02-16T06:16:57.708Z,1.04
2019-02-16T06:19:26.497Z,1.03
2019-02-16T06:21:55.279Z,1.00
2019-02-16T06:24:24.069Z,0.97
2019-02-16T06:26:52.920Z,0.95
2019-02-16T06:29:21.683Z,0.93
2019-02-16T06:31:50.549Z,0.90
2019-02-16T06:34:19.707Z,0.88
2019-02-16T06:36:49.539Z,0.87
2019-02-16T06:39:18.313Z,0.86
2019-02-16T06:41:47.096Z,0.84
2019-02-16T06:44:17.021Z,0.83
2019-02-16T06:46:45.846Z,0.82
2019-02-16T06:49:14.655Z,0.82
2019-02-16T06:51:43.447Z,0.82
2019-02-16T06:54:12.228Z,0.82
2019-02-16T06:56:48.047Z,0.83
2019-02-16T06:59:16.894Z,0.86
2019-02-16T07:01:45.712Z,0.87
2019-02-16T07:04:15.363Z,0.88
2019-02-16T07:06:44.233Z,0.88
2019-02-16T07:09:13.143Z,0.88
2019-02-16T07:11:41.953Z,0.90
2019-02-16T07:14:10.780Z,0.90
2019-02-16T07:16:44.979Z,0.93
2019-02-16T07:19:20.987Z,0.95
2019-02-16T07:21:49.789Z,0.98
2019-02-16T07:24:19.207Z,0.99
2019-02-16T07:26:48.019Z,1.02
2019-02-16T07:29:17.379Z,1.08
2019-02-16T07:31:46.140Z,1.12
2019-02-16T07:34:14.951Z,1.16
2019-02-16T07:36:43.763Z,1.17
2019-02-16T07:39:13.796Z,1.22
2019-02-16T07:41:43.921Z,1.26
2019-02-16T07:44:17.997Z,1.31
2019-02-16T07:46:53.739Z,1.38
2019-02-16T07:49:28.772Z,1.43
2019-02-16T07:52:03.361Z,1.48
2019-02-16T07:54:39.954Z,1.54
2019-02-16T07:57:14.694Z,1.60
2019-02-16T08:00:50.495Z,1.67
2019-02-16T08:03:25.581Z,1.76
2019-02-16T08:05:58.861Z,1.83
2019-02-16T08:08:32.707Z,1.90
2019-02-16T08:11:05.704Z,2.01
2019-02-16T08:13:44.828Z,2.11
2019-02-16T08:16:21.804Z,2.21
2019-02-16T08:18:58.859Z,2.30
2019-02-16T08:21:34.769Z,2.43
2019-02-16T08:24:08.853Z,2.56
2019-02-16T08:26:42.915Z,2.73
2019-02-16T08:29:20.259Z,2.89
2019-02-16T08:31:57.285Z,3.10
2019-02-16T08:34:37.198Z,3.34
2019-02-16T08:37:11.194Z,3.60
2019-02-16T08:39:49.574Z,3.86
2019-02-16T08:42:23.787Z,4.11
2019-02-16T08:47:00.714Z,4.35
2019-02-16T08:49:34.843Z,4.73
2019-02-16T08:52:09.052Z,4.99
2019-02-16T08:54:48.010Z,5.25
2019-02-16T08:57:26.147Z,5.55
2019-02-16T08:59:59.123Z,5.87
2019-02-16T09:02:36.118Z,6.17
2019-02-16T09:05:10.543Z,6.45
2019-02-16T09:07:44.587Z,6.74
2019-02-16T09:10:18.730Z,7.01
2019-02-16T09:13:53.430Z,7.29
2019-02-16T09:16:27.380Z,7.61
2019-02-16T09:19:05.487Z,7.83
2019-02-16T09:21:38.447Z,8.06
2019-02-16T09:24:18.134Z,8.29
2019-02-16T09:26:54.885Z,8.56
2019-02-16T09:29:29.856Z,8.77
2019-02-16T09:32:05.780Z,8.99
2019-02-16T09:35:39.999Z,9.19
2019-02-16T09:38:13.969Z,9.47
2019-02-16T09:40:49.722Z,9.68
2019-02-16T09:43:25.595Z,9.90
2019-02-16T09:46:01.719Z,10.17
2019-02-16T09:48:36.705Z,10.36
2019-02-16T09:51:18.682Z,10.47
2019-02-16T09:53:58.199Z,10.71
2019-02-16T09:56:37.303Z,10.95
2019-02-16T09:59:18.208Z,11.16
2019-02-16T10:01:52.409Z,11.40
2019-02-16T10:04:30.348Z,11.57
2019-02-16T10:07:07.289Z,11.75
2019-02-16T10:10:12.722Z,11.92
2019-02-16T10:12:46.895Z,12.12
2019-02-16T10:15:22.869Z,12.29
2019-02-16T10:17:57.892Z,12.45
2019-02-16T10:20:32.043Z,12.58
2019-02-16T10:23:07.871Z,12.80
2019-02-16T10:25:44.388Z,12.99
2019-02-16T10:28:19.334Z,13.24
2019-02-16T10:30:53.146Z,13.41
2019-02-16T10:33:26.132Z,13.55
2019-02-16T10:36:00.182Z,13.67
2019-02-16T10:38:34.434Z,13.90
2019-02-16T10:41:08.562Z,14.11
2019-02-16T10:43:43.435Z,14.29
2019-02-16T10:46:17.322Z,14.40
2019-02-16T10:48:50.311Z,14.48
2019-02-16T10:51:25.279Z,14.52
2019-02-16T10:54:29.805Z,14.60
2019-02-16T10:57:05.323Z,14.75
2019-02-16T10:59:39.479Z,14.86
2019-02-16T11:02:19.206Z,14.94
2019-02-16T11:04:56.857Z,15.07
2019-02-16T11:07:29.604Z,15.34
2019-02-16T11:10:05.201Z,15.45
2019-02-16T11:12:39.016Z,15.55
2019-02-16T11:15:18.314Z,15.71
2019-02-16T11:17:53.279Z,15.78
2019-02-16T11:20:27.271Z,15.80
2019-02-16T11:23:01.399Z,15.99
2019-02-16T11:27:46.121Z,16.18
2019-02-16T11:31:22.106Z,16.47
2019-02-16T11:33:55.081Z,16.70
2019-02-16T11:36:28.923Z,16.83
2019-02-16T11:39:03.259Z,16.94
2019-02-16T11:41:39.516Z,16.97
2019-02-16T11:44:13.477Z,16.97
2019-02-16T11:46:49.019Z,16.85
2019-02-16T11:49:25.979Z,16.77
2019-02-16T11:52:04.601Z,16.89
2019-02-16T11:54:45.377Z,16.98
2019-02-16T11:57:11.829Z,17.11
2019-02-16T11:59:51.800Z,17.15
2019-02-16T12:02:24.790Z,17.22
2019-02-16T12:05:00.290Z,17.41
2019-02-16T12:07:34.294Z,17.61
2019-02-16T12:11:08.814Z,17.82
2019-02-16T12:13:44.929Z,18.02
2019-02-16T12:16:49.375Z,18.06
2019-02-16T12:19:24.396Z,17.99
2019-02-16T12:22:02.666Z,18.08
2019-02-16T12:24:38.325Z,18.24
2019-02-16T12:27:14.300Z,18.38
2019-02-16T12:29:48.298Z,18.39
2019-02-16T12:32:24.365Z,18.44
2019-02-16T12:34:58.185Z,18.53
2019-02-16T12:37:32.681Z,18.53
2019-02-16T12:40:08.618Z,18.52
2019-02-16T12:43:15.212Z,18.58
2019-02-16T12:45:51.553Z,18.68
2019-02-16T12:48:26.996Z,18.74
2019-02-16T12:51:34.276Z,18.83
2019-02-16T12:54:10.356Z,18.82
2019-02-16T12:57:01.294Z,18.79
2019-02-16T12:59:35.172Z,18.72
2019-02-16T13:02:15.262Z,18.66
2019-02-16T13:04:51.182Z,18.57
2019-02-16T13:08:26.009Z,18.56
2019-02-16T13:11:08.076Z,18.48
2019-02-16T13:15:48.475Z,18.36
2019-02-16T13:20:31.536Z,18.33
2019-02-16T13:23:11.557Z,18.32
2019-02-16T13:25:48.467Z,18.27
2019-02-16T13:28:23.449Z,18.21
2019-02-16T13:30:58.264Z,18.21
2019-02-16T13:33:34.250Z,18.20
2019-02-16T13:36:07.228Z,18.12
2019-02-16T13:39:17.713Z,18.12
2019-02-16T13:41:56.680Z,18.02
2019-02-16T13:45:31.585Z,17.90
2019-02-16T13:48:05.503Z,17.80
2019-02-16T13:50:42.816Z,17.79
2019-02-16T13:53:48.467Z,17.84
2019-02-16T13:56:26.954Z,17.88
2019-02-16T13:59:00.941Z,17.89
2019-02-16T14:01:36.576Z,17.92
2019-02-16T14:04:14.633Z,17.91
2019-02-16T14:07:21.201Z,17.84
2019-02-16T14:10:11.335Z,17.84
2019-02-16T14:12:44.403Z,17.85
2019-02-16T14:15:21.532Z,17.84
2019-02-16T14:17:51.680Z,17.78
2019-02-16T14:20:19.915Z,17.61
2019-02-16T14:22:48.741Z,17.47
2019-02-16T14:25:23.775Z,17.36
2019-02-16T14:27:52.579Z,17.25
2019-02-16T14:30:21.911Z,17.20
2019-02-16T14:32:50.719Z,17.22
2019-02-16T14:35:19.543Z,17.27
2019-02-16T14:37:53.064Z,17.25
2019-02-16T14:40:21.915Z,17.25
2019-02-16T14:42:50.722Z,17.22
2019-02-16T14:45:19.532Z,17.15
2019-02-16T14:47:48.380Z,17.12
2019-02-16T14:50:17.179Z,17.06
2019-02-16T14:52:46.038Z,16.88
2019-02-16T14:55:14.946Z,16.81
2019-02-16T14:57:44.414Z,16.77
2019-02-16T15:00:13.243Z,16.74
2019-02-16T15:02:43.343Z,16.64
2019-02-16T15:05:12.228Z,16.60
2019-02-16T15:07:42.031Z,16.51
2019-02-16T15:10:10.946Z,16.45
2019-02-16T15:12:46.176Z,16.36
2019-02-16T15:15:15.583Z,16.26
2019-02-16T15:17:45.160Z,16.23
2019-02-16T15:20:14.094Z,16.14
2019-02-16T15:22:44.412Z,16.08
2019-02-16T15:25:15.019Z,15.98
2019-02-16T15:27:44.483Z,15.87
2019-02-16T15:30:15.143Z,15.82
2019-02-16T15:32:43.943Z,15.74
2019-02-16T15:35:12.749Z,15.62
2019-02-16T15:37:42.612Z,15.53
2019-02-16T15:40:11.462Z,15.41
2019-02-16T15:42:40.215Z,15.32
2019-02-16T15:45:11.394Z,15.23
2019-02-16T15:47:41.058Z,15.16
2019-02-16T15:50:11.890Z,15.10
2019-02-16T15:52:40.719Z,15.04
2019-02-16T15:55:10.371Z,14.96
2019-02-16T15:57:39.838Z,14.89
2019-02-16T16:00:11.445Z,14.80
2019-02-16T16:02:40.282Z,14.73
2019-02-16T16:05:09.120Z,14.64
2019-02-16T16:07:40.232Z,14.57
2019-02-16T16:10:13.231Z,14.47
2019-02-16T16:13:19.609Z,14.40
2019-02-16T16:15:55.491Z,14.29
2019-02-16T16:18:36.499Z,14.20
2019-02-16T16:22:13.715Z,14.10
2019-02-16T16:24:47.461Z,13.94
2019-02-16T16:27:22.451Z,13.84
2019-02-16T16:30:35.887Z,13.73
2019-02-16T16:33:15.288Z,13.59
2019-02-16T16:35:48.324Z,13.49
2019-02-16T16:38:23.320Z,13.41
2019-02-16T16:41:31.833Z,13.30
2019-02-16T16:45:08.951Z,13.21
2019-02-16T16:47:45.959Z,13.05
2019-02-16T16:50:21.966Z,12.95
2019-02-16T16:52:57.549Z,12.85
2019-02-16T16:55:30.552Z,12.75
2019-02-16T16:59:03.477Z,12.65
2019-02-16T17:01:40.291Z,12.50
2019-02-16T17:04:17.978Z,12.40
2019-02-16T17:06:52.976Z,12.30
2019-02-16T17:09:30.975Z,12.17
2019-02-16T17:12:05.601Z,12.03
2019-02-16T17:14:39.546Z,11.95
2019-02-16T17:17:32.408Z,11.85
2019-02-16T17:20:07.417Z,11.68
2019-02-16T17:22:41.392Z,11.56
2019-02-16T17:25:19.829Z,11.46
2019-02-16T17:28:02.413Z,11.36
2019-02-16T17:30:39.741Z,11.27
2019-02-16T17:33:15.686Z,11.19
2019-02-16T17:35:50.309Z,11.13
2019-02-16T17:38:24.238Z,11.04
2019-02-16T17:42:00.044Z,10.97
2019-02-16T17:44:43.732Z,10.85
2019-02-16T17:47:17.807Z,10.77
2019-02-16T17:49:52.735Z,10.69
2019-02-16T17:52:26.994Z,10.59
2019-02-16T17:56:03.947Z,10.54
2019-02-16T17:58:39.432Z,10.34
2019-02-16T18:01:47.558Z,10.22
2019-02-16T18:04:35.870Z,10.07
2019-02-16T18:07:09.759Z,9.99
2019-02-16T18:09:44.312Z,9.93
2019-02-16T18:13:17.110Z,9.86
2019-02-16T18:15:54.075Z,9.77
2019-02-16T18:18:30.622Z,9.71
2019-02-16T18:21:10.688Z,9.63
2019-02-16T18:23:46.472Z,9.54
2019-02-16T18:26:22.405Z,9.47
2019-02-16T18:30:01.205Z,9.39
2019-02-16T18:32:40.226Z,9.30
2019-02-16T18:35:22.062Z,9.18
2019-02-16T18:37:50.128Z,9.08
2019-02-16T18:40:23.480Z,8.98
2019-02-16T18:43:12.985Z,8.90
2019-02-16T18:45:46.966Z,8.84
2019-02-16T18:48:35.325Z,8.80
2019-02-16T18:51:09.721Z,8.78
2019-02-16T18:53:42.623Z,8.72
2019-02-16T18:56:19.484Z,8.67
2019-02-16T18:58:51.636Z,8.60
2019-02-16T19:01:26.487Z,8.54
2019-02-16T19:04:00.651Z,8.47
2019-02-16T19:06:36.668Z,8.40
2019-02-16T19:09:10.979Z,8.35
2019-02-16T19:11:54.441Z,8.30
2019-02-16T19:14:29.262Z,8.22
2019-02-16T19:17:04.894Z,8.13
2019-02-16T19:19:39.002Z,8.10
2019-02-16T19:22:13.215Z,8.05
2019-02-16T19:24:52.373Z,8.01
2019-02-16T19:27:26.595Z,7.96
2019-02-16T19:30:01.577Z,7.92
2019-02-16T19:32:35.582Z,7.88
2019-02-16T19:35:15.683Z,7.80
2019-02-16T19:37:48.623Z,7.75
2019-02-16T19:40:27.698Z,7.71
2019-02-16T19:43:01.679Z,7.68
2019-02-16T19:45:36.646Z,7.62
2019-02-16T19:48:16.857Z,7.55
2019-02-16T19:50:53.590Z,7.43
2019-02-16T19:53:27.838Z,7.39
2019-02-16T19:56:03.709Z,7.36
2019-02-16T19:58:37.534Z,7.32
2019-02-16T20:01:43.923Z,7.29
2019-02-16T20:04:20.885Z,7.28
2019-02-16T20:06:54.672Z,7.26
2019-02-16T20:09:28.642Z,7.24
2019-02-16T20:14:09.706Z,7.20
2019-02-16T20:16:44.152Z,7.10
2019-02-16T20:19:21.056Z,7.05
2019-02-16T20:23:01.344Z,7.01
2019-02-16T20:25:36.194Z,6.95
2019-02-16T20:30:19.169Z,6.91
2019-02-16T20:32:53.147Z,6.76
2019-02-16T20:35:28.112Z,6.73
2019-02-16T20:38:02.303Z,6.69
2019-02-16T20:40:36.507Z,6.67
2019-02-16T20:43:12.351Z,6.63
2019-02-16T20:45:46.209Z,6.60
2019-02-16T20:48:22.027Z,6.57
2019-02-16T20:50:57.010Z,6.54
2019-02-16T20:53:30.027Z,6.53
2019-02-16T20:56:04.072Z,6.50
2019-02-16T20:58:39.889Z,6.49
2019-02-16T21:02:15.033Z,6.57
2019-02-16T21:04:54.017Z,6.44
2019-02-16T21:07:38.116Z,6.41
2019-02-16T21:10:15.396Z,6.38
2019-02-16T21:12:50.371Z,6.35
2019-02-16T21:15:25.933Z,6.32
2019-02-16T21:18:20.266Z,6.29
2019-02-16T21:20:55.290Z,6.24
2019-02-16T21:24:02.680Z,6.22
2019-02-16T21:26:40.684Z,6.18
2019-02-16T21:29:20.581Z,6.16
2019-02-16T21:31:54.876Z,6.11
2019-02-16T21:34:31.858Z,6.08
2019-02-16T21:37:07.392Z,6.05
2019-02-16T21:39:42.315Z,6.03
2019-02-16T21:42:16.233Z,5.98
2019-02-16T21:44:50.166Z,5.90
2019-02-16T21:47:31.931Z,5.86
2019-02-16T21:50:04.976Z,5.83
2019-02-16T21:53:37.387Z,5.81
2019-02-16T21:56:15.492Z,5.76
2019-02-16T21:58:49.660Z,5.73
2019-02-16T22:01:57.128Z,5.69
2019-02-16T22:04:34.143Z,5.67
2019-02-16T22:07:39.086Z,5.62
2019-02-16T22:10:15.838Z,5.57
2019-02-16T22:12:54.880Z,5.52
2019-02-16T22:15:24.149Z,5.49
2019-02-16T22:17:52.950Z,5.45
2019-02-16T22:20:21.796Z,5.42
2019-02-16T22:22:50.655Z,5.39
2019-02-16T22:25:21.495Z,5.38
2019-02-16T22:27:50.461Z,5.38
2019-02-16T22:30:20.071Z,5.37
2019-02-16T22:32:50.230Z,5.34
2019-02-16T22:35:19.063Z,5.31
2019-02-16T22:37:47.871Z,5.27
2019-02-16T22:40:16.749Z,5.24
2019-02-16T22:42:45.550Z,5.23
2019-02-16T22:45:14.380Z,5.20
2019-02-16T22:47:43.167Z,5.17
2019-02-16T22:50:12.695Z,5.16
2019-02-16T22:52:41.510Z,5.12
2019-02-16T22:55:10.329Z,5.10
2019-02-16T22:57:39.219Z,5.08
2019-02-16T23:00:12.283Z,5.05
2019-02-16T23:02:43.853Z,5.04
2019-02-16T23:05:12.720Z,5.00
2019-02-16T23:07:41.507Z,4.98
2019-02-16T23:10:10.997Z,4.95
2019-02-16T23:12:41.052Z,4.93
2019-02-16T23:15:11.152Z,4.91
2019-02-16T23:17:40.023Z,4.89
2019-02-16T23:20:09.890Z,4.86
2019-02-16T23:22:39.039Z,4.84
2019-02-16T23:25:09.131Z,4.81
2019-02-16T23:27:37.894Z,4.76
2019-02-16T23:30:07.291Z,4.73
2019-02-16T23:32:37.083Z,4.70
2019-02-16T23:35:07.804Z,4.67
2019-02-16T23:37:38.263Z,4.65
2019-02-16T23:40:07.647Z,4.65
2019-02-16T23:42:37.451Z,4.63
2019-02-16T23:45:08.029Z,4.60
2019-02-16T23:47:36.797Z,4.58
2019-02-16T23:50:07.297Z,4.56
2019-02-16T23:52:37.904Z,4.51
2019-02-16T23:55:07.669Z,4.49
2019-02-16T23:57:36.562Z,4.46
